Time;durP1;ratioP1;P1;durP2;ratioP2;P2;SDS_P1;SDS_P2;PMS_P1;PMS_P2;Temp;Humidity;BMP_temperature;BMP_pressure;BME280_temperature;BME280_humidity;BME280_pressure;Samples;Min_cycle;Max_cycle;Signal;HPM_P1;HPM_P2
2022/01/04 00:01:47;;;;;;;8.63;5.63;;;9.20;99.90;;;;;;5062841;28;20254;-54
2022/01/04 00:04:14;;;;;;;6.37;5.43;;;9.20;99.90;;;;;;5061297;28;20726;-54
2022/01/04 00:06:41;;;;;;;10.20;5.80;;;9.10;99.90;;;;;;5063005;28;20203;-55
2022/01/04 00:09:10;;;;;;;11.63;5.63;;;9.10;99.90;;;;;;5062128;28;20235;-54
2022/01/04 00:14:19;;;;;;;6.43;5.47;;;9.20;99.90;;;;;;5062112;28;20267;-54
2022/01/04 00:16:46;;;;;;;9.83;5.77;;;9.10;99.90;;;;;;5061955;28;20213;-54
2022/01/04 00:19:13;;;;;;;7.80;5.80;;;9.20;99.90;;;;;;5056633;28;20203;-54
2022/01/04 00:21:42;;;;;;;7.27;5.60;;;9.10;99.90;;;;;;5062611;28;20321;-54
2022/01/04 00:24:09;;;;;;;11.07;5.50;;;9.10;99.90;;;;;;5062442;28;20549;-54
2022/01/04 00:26:36;;;;;;;7.87;5.50;;;9.10;99.90;;;;;;5061268;28;20195;-53
2022/01/04 00:29:03;;;;;;;8.37;5.77;;;9.10;99.90;;;;;;5077390;28;20304;-55
2022/01/04 00:31:30;;;;;;;9.17;6.13;;;9.00;99.90;;;;;;5062496;28;20741;-54
2022/01/04 00:33:57;;;;;;;8.97;6.23;;;9.00;99.90;;;;;;5061320;28;20214;-58
2022/01/04 00:36:25;;;;;;;8.07;5.83;;;9.00;99.90;;;;;;5062933;28;20668;-55
2022/01/04 00:38:52;;;;;;;9.47;6.07;;;9.00;99.90;;;;;;5061878;28;20566;-55
2022/01/04 00:41:19;;;;;;;8.27;5.97;;;9.10;99.90;;;;;;5062461;28;20293;-53
2022/01/04 00:43:46;;;;;;;8.63;6.47;;;9.00;99.90;;;;;;5062104;28;20228;-56
2022/01/04 00:46:17;;;;;;;8.37;5.67;;;9.00;99.90;;;;;;5062696;28;20202;-55
2022/01/04 00:51:31;;;;;;;7.73;6.30;;;9.00;99.90;;;;;;5061132;28;20656;-55
2022/01/04 00:53:57;;;;;;;9.87;5.93;;;9.00;99.90;;;;;;5061542;28;20302;-57
2022/01/04 00:56:24;;;;;;;8.27;6.20;;;9.00;99.90;;;;;;5056372;28;20210;-55
2022/01/04 00:58:51;;;;;;;8.57;5.93;;;9.00;99.90;;;;;;5060385;28;20213;-54
2022/01/04 01:01:19;;;;;;;9.97;5.77;;;9.10;99.90;;;;;;5056471;28;20268;-54
2022/01/04 01:03:46;;;;;;;8.93;6.50;;;9.00;99.90;;;;;;5060081;28;21196;-54
2022/01/04 01:06:14;;;;;;;9.40;5.57;;;9.00;99.90;;;;;;5060568;28;20295;-54
2022/01/04 01:08:41;;;;;;;7.70;5.57;;;9.00;99.90;;;;;;5061059;28;20310;-52
2022/01/04 01:11:09;;;;;;;7.63;5.33;;;9.00;99.90;;;;;;5062038;28;20206;-54
2022/01/04 01:13:36;;;;;;;7.43;4.80;;;8.90;99.90;;;;;;5062260;28;20201;-54
2022/01/04 01:16:03;;;;;;;9.83;5.57;;;9.00;99.90;;;;;;5060930;28;20240;-54
2022/01/04 01:18:30;;;;;;;9.20;5.10;;;9.00;99.90;;;;;;5061303;28;20214;-54
2022/01/04 01:20:57;;;;;;;6.50;4.97;;;9.00;99.90;;;;;;5058648;28;20266;-54
2022/01/04 01:23:24;;;;;;;6.93;5.07;;;9.00;99.90;;;;;;5061780;28;20276;-54
2022/01/04 01:25:51;;;;;;;5.03;4.53;;;8.90;99.90;;;;;;5062519;28;20235;-55
2022/01/04 01:28:19;;;;;;;7.90;4.60;;;8.90;99.90;;;;;;5061039;28;20231;-55
2022/01/04 01:30:46;;;;;;;7.33;4.53;;;8.90;99.90;;;;;;5060437;28;20301;-55
2022/01/04 01:33:13;;;;;;;7.03;4.23;;;8.90;99.90;;;;;;5060504;28;20206;-54
2022/01/04 01:35:41;;;;;;;6.30;4.10;;;8.90;99.90;;;;;;5056385;28;20209;-54
2022/01/04 01:38:09;;;;;;;8.83;4.60;;;8.90;99.90;;;;;;5058579;28;20235;-53
2022/01/04 01:40:37;;;;;;;7.30;4.63;;;8.80;99.90;;;;;;5060803;28;20206;-53
2022/01/04 01:43:04;;;;;;;6.67;4.43;;;8.80;99.90;;;;;;5060464;28;20211;-54
2022/01/04 01:45:31;;;;;;;9.90;5.03;;;8.80;99.90;;;;;;5061394;28;20906;-54
2022/01/04 01:47:58;;;;;;;7.77;4.63;;;8.80;99.90;;;;;;5061091;28;20858;-54
2022/01/04 01:50:25;;;;;;;6.37;4.87;;;8.80;99.90;;;;;;5058501;28;20200;-54
2022/01/04 01:52:54;;;;;;;6.03;4.73;;;8.80;99.90;;;;;;5067308;28;20210;-54
2022/01/04 01:55:22;;;;;;;4.80;4.30;;;8.80;99.90;;;;;;5061386;28;20283;-54
2022/01/04 01:57:50;;;;;;;6.73;4.53;;;8.80;99.90;;;;;;5060658;28;20708;-54
2022/01/04 02:00:20;;;;;;;10.33;4.67;;;8.80;99.90;;;;;;5060927;28;20203;-54
2022/01/04 02:02:47;;;;;;;6.20;4.60;;;8.80;99.90;;;;;;5060570;28;20224;-55
2022/01/04 02:05:15;;;;;;;7.13;5.20;;;8.80;99.90;;;;;;5059474;28;20225;-53
2022/01/04 02:07:43;;;;;;;6.87;5.30;;;8.80;99.90;;;;;;5060313;28;20217;-55
2022/01/04 02:10:11;;;;;;;6.27;5.37;;;8.80;99.90;;;;;;5060209;28;20282;-54
2022/01/04 02:12:41;;;;;;;6.13;4.97;;;8.80;99.90;;;;;;5060137;28;20205;-53
2022/01/04 02:15:10;;;;;;;8.50;5.63;;;8.80;99.90;;;;;;5060189;28;20205;-54
2022/01/04 02:17:38;;;;;;;7.63;5.30;;;8.80;99.90;;;;;;5060241;28;20203;-54
2022/01/04 02:20:06;;;;;;;6.43;5.37;;;8.80;99.90;;;;;;5073892;28;20209;-53
2022/01/04 02:22:33;;;;;;;9.00;5.57;;;8.80;99.90;;;;;;5059899;28;20300;-54
2022/01/04 02:25:00;;;;;;;8.13;5.10;;;8.80;99.90;;;;;;5059360;28;20199;-54
2022/01/04 02:27:27;;;;;;;7.70;5.53;;;8.80;99.90;;;;;;5060162;28;20695;-53
2022/01/04 02:29:54;;;;;;;6.70;5.23;;;8.70;99.90;;;;;;5060063;28;20237;-53
2022/01/04 02:32:21;;;;;;;7.93;4.90;;;8.70;99.90;;;;;;5058796;28;20287;-56
2022/01/04 02:34:51;;;;;;;8.53;5.47;;;8.80;99.90;;;;;;5058476;28;20296;-54
2022/01/04 02:37:23;;;;;;;8.53;5.13;;;8.70;99.90;;;;;;5059878;28;20243;-53
2022/01/04 02:39:51;;;;;;;6.30;4.60;;;8.70;99.90;;;;;;5059314;28;20237;-54
2022/01/04 02:42:19;;;;;;;8.30;4.50;;;8.60;99.90;;;;;;5060446;28;20272;-54
2022/01/04 02:44:46;;;;;;;8.03;4.53;;;8.70;99.90;;;;;;5059632;28;20217;-53
2022/01/04 02:47:14;;;;;;;7.00;4.03;;;8.70;99.90;;;;;;5075878;28;20355;-54
2022/01/04 02:49:41;;;;;;;5.27;3.60;;;8.70;99.90;;;;;;5056463;28;20242;-54
2022/01/04 02:52:08;;;;;;;5.57;3.73;;;8.70;99.90;;;;;;5058673;28;20251;-54
2022/01/04 02:54:35;;;;;;;4.83;4.33;;;8.60;99.90;;;;;;5059022;28;20311;-54
2022/01/04 02:57:02;;;;;;;5.13;4.00;;;8.70;99.90;;;;;;5060412;28;20207;-53
2022/01/04 02:59:29;;;;;;;5.07;3.93;;;8.60;99.90;;;;;;5059831;28;20201;-52
2022/01/04 03:01:56;;;;;;;4.77;3.97;;;8.60;99.90;;;;;;5060100;28;20251;-54
2022/01/04 03:04:23;;;;;;;5.63;4.37;;;8.70;99.90;;;;;;5056830;28;20267;-55
2022/01/04 03:06:50;;;;;;;7.27;4.47;;;8.70;99.90;;;;;;5060160;28;20694;-54
2022/01/04 03:09:17;;;;;;;5.40;4.23;;;8.70;99.90;;;;;;5073459;28;20270;-54
2022/01/04 03:11:44;;;;;;;6.37;4.57;;;8.60;99.90;;;;;;5059967;28;20207;-55
2022/01/04 03:14:11;;;;;;;9.07;4.30;;;8.60;99.90;;;;;;5059394;28;20300;-54
2022/01/04 03:16:38;;;;;;;5.40;4.40;;;8.60;99.90;;;;;;5059921;28;20242;-54
2022/01/04 03:19:09;;;;;;;7.07;4.83;;;8.60;99.90;;;;;;5058058;28;20243;-57
2022/01/04 03:21:38;;;;;;;6.00;4.67;;;8.60;99.90;;;;;;5059667;28;20207;-54
2022/01/04 03:24:07;;;;;;;7.07;5.17;;;8.60;99.90;;;;;;5059408;28;20217;-55
2022/01/04 03:26:34;;;;;;;6.27;5.23;;;8.60;99.90;;;;;;5059368;28;20377;-54
2022/01/04 03:29:02;;;;;;;8.10;5.37;;;8.60;99.90;;;;;;5055279;28;20237;-54
2022/01/04 03:31:29;;;;;;;7.77;5.57;;;8.60;99.90;;;;;;5059282;28;20649;-53
2022/01/04 03:33:56;;;;;;;8.53;5.47;;;8.60;99.90;;;;;;5058392;28;20242;-54
2022/01/04 03:36:24;;;;;;;7.93;5.57;;;8.60;99.90;;;;;;5059103;28;20270;-53
2022/01/04 03:38:52;;;;;;;6.97;5.50;;;8.60;99.90;;;;;;5059873;28;20265;-56
2022/01/04 03:41:21;;;;;;;13.57;6.37;;;8.50;99.90;;;;;;5059850;28;20208;-54
2022/01/04 03:43:49;;;;;;;8.50;6.23;;;8.50;99.90;;;;;;5058882;28;20704;-56
2022/01/04 03:46:16;;;;;;;7.43;5.47;;;8.50;99.90;;;;;;5060389;28;20250;-54
2022/01/04 03:48:44;;;;;;;8.27;6.17;;;8.50;99.90;;;;;;5059120;28;20222;-53
2022/01/04 03:51:11;;;;;;;8.80;5.77;;;8.50;99.90;;;;;;5059339;28;20604;-53
2022/01/04 03:53:38;;;;;;;7.23;6.00;;;8.50;99.90;;;;;;5055075;28;20643;-53
2022/01/04 03:56:06;;;;;;;7.80;6.10;;;8.50;99.90;;;;;;5053187;28;20200;-53
2022/01/04 03:58:33;;;;;;;10.53;6.27;;;8.50;99.90;;;;;;5055655;28;20262;-54
2022/01/04 04:01:01;;;;;;;7.77;6.60;;;8.40;99.90;;;;;;5069183;28;20283;-54
2022/01/04 04:03:29;;;;;;;7.60;6.60;;;8.40;99.90;;;;;;5062510;28;20812;-54
2022/01/04 04:05:55;;;;;;;10.77;6.40;;;8.40;99.90;;;;;;5061313;28;20600;-54
2022/01/04 04:08:22;;;;;;;6.83;5.77;;;8.50;99.90;;;;;;5062869;28;20234;-56
2022/01/04 04:10:49;;;;;;;8.67;6.50;;;8.50;99.90;;;;;;5062873;28;20576;-53
2022/01/04 04:13:16;;;;;;;8.07;6.90;;;8.50;99.90;;;;;;5062249;28;20206;-56
2022/01/04 04:15:44;;;;;;;10.70;7.07;;;8.40;99.90;;;;;;5062838;28;20265;-56
2022/01/04 04:18:11;;;;;;;7.73;6.87;;;8.50;99.90;;;;;;5061759;28;20267;-53
2022/01/04 04:20:39;;;;;;;8.10;6.50;;;8.50;99.90;;;;;;5061422;28;20656;-54
2022/01/04 04:23:07;;;;;;;10.63;6.33;;;8.50;99.90;;;;;;5063017;28;20261;-54
2022/01/04 04:25:34;;;;;;;7.53;6.60;;;8.40;99.90;;;;;;5059491;28;20257;-55
2022/01/04 04:28:01;;;;;;;8.70;6.70;;;8.40;99.90;;;;;;5061310;28;20239;-54
2022/01/04 04:30:28;;;;;;;9.97;8.60;;;8.40;99.90;;;;;;5056768;28;20649;-54
2022/01/04 04:32:55;;;;;;;11.83;7.37;;;8.40;99.90;;;;;;5061132;28;20206;-54
2022/01/04 04:35:22;;;;;;;9.87;7.57;;;8.40;99.90;;;;;;5060773;28;20207;-54
2022/01/04 04:37:49;;;;;;;11.60;7.43;;;8.40;99.90;;;;;;5061919;28;20288;-55
2022/01/04 04:40:16;;;;;;;13.60;7.63;;;8.40;99.90;;;;;;5059533;28;20247;-53
2022/01/04 04:42:43;;;;;;;8.60;7.40;;;8.40;99.90;;;;;;5061772;28;20222;-53
2022/01/04 04:45:10;;;;;;;10.10;6.77;;;8.40;99.90;;;;;;5061934;28;20589;-53
2022/01/04 04:47:37;;;;;;;9.07;6.40;;;8.40;99.90;;;;;;5063025;28;20746;-55
2022/01/04 04:50:04;;;;;;;8.93;6.70;;;8.40;99.90;;;;;;5074930;28;20203;-54
2022/01/04 04:52:31;;;;;;;7.67;6.87;;;8.40;99.90;;;;;;5061839;28;20664;-55
2022/01/04 04:54:58;;;;;;;9.17;6.67;;;8.40;99.90;;;;;;5060924;28;20203;-55
2022/01/04 04:57:25;;;;;;;9.60;6.37;;;8.40;99.90;;;;;;5062137;28;20254;-54
2022/01/04 04:59:52;;;;;;;7.83;5.90;;;8.40;99.90;;;;;;5061611;28;20203;-54
2022/01/04 05:02:19;;;;;;;9.33;6.00;;;8.40;99.90;;;;;;5077597;28;20239;-54
2022/01/04 05:04:46;;;;;;;10.67;5.83;;;8.30;99.90;;;;;;5059765;28;20224;-54
2022/01/04 05:07:13;;;;;;;7.67;6.07;;;8.30;99.90;;;;;;5061975;28;20205;-53
2022/01/04 05:09:40;;;;;;;9.67;6.67;;;8.40;99.90;;;;;;5060850;28;20231;-52
2022/01/04 05:12:07;;;;;;;8.20;6.63;;;8.50;99.90;;;;;;5061348;28;20204;-54
2022/01/04 05:14:36;;;;;;;8.23;6.13;;;8.40;99.90;;;;;;5061420;28;20677;-53
2022/01/04 05:17:03;;;;;;;8.73;5.80;;;8.30;99.90;;;;;;5061393;28;20677;-54
2022/01/04 05:19:30;;;;;;;8.43;6.43;;;8.30;99.90;;;;;;5058194;28;20215;-53
2022/01/04 05:21:57;;;;;;;8.83;6.50;;;8.30;99.90;;;;;;5061767;28;20260;-54
2022/01/04 05:24:24;;;;;;;8.03;6.30;;;8.30;99.90;;;;;;5058317;28;20225;-53
2022/01/04 05:26:51;;;;;;;8.13;6.23;;;8.30;99.90;;;;;;5062027;28;20230;-55
2022/01/04 05:29:18;;;;;;;8.83;7.13;;;8.30;99.90;;;;;;5058646;28;20235;-53
2022/01/04 05:31:45;;;;;;;8.23;6.00;;;8.30;99.90;;;;;;5061861;28;20216;-53
2022/01/04 05:34:12;;;;;;;13.43;6.67;;;8.20;99.90;;;;;;5060584;28;20207;-54
2022/01/04 05:36:38;;;;;;;7.93;6.37;;;8.30;99.90;;;;;;5061286;28;20267;-54
2022/01/04 05:39:05;;;;;;;8.53;5.80;;;8.30;99.90;;;;;;5060491;28;20209;-53
2022/01/04 05:41:33;;;;;;;7.23;6.30;;;8.30;99.90;;;;;;5059975;28;20205;-54
2022/01/04 05:44:00;;;;;;;9.17;6.63;;;8.30;99.90;;;;;;5061260;28;20219;-54
2022/01/04 05:46:27;;;;;;;8.80;6.80;;;8.20;99.90;;;;;;5061323;28;20727;-53
2022/01/04 05:48:54;;;;;;;10.17;6.60;;;8.20;99.90;;;;;;5060474;28;20779;-54
2022/01/04 05:51:21;;;;;;;9.97;6.73;;;8.20;99.90;;;;;;5060794;28;20279;-56
2022/01/04 05:53:48;;;;;;;10.70;7.50;;;8.20;99.90;;;;;;5060193;28;20207;-53
2022/01/04 05:56:14;;;;;;;12.37;8.13;;;8.20;99.90;;;;;;5060631;28;20296;-54
2022/01/04 05:58:41;;;;;;;10.03;6.60;;;8.20;99.90;;;;;;5061376;28;20208;-52
2022/01/04 06:01:08;;;;;;;10.30;7.90;;;8.20;99.90;;;;;;5058683;28;20290;-54
2022/01/04 06:03:35;;;;;;;12.73;8.33;;;8.30;99.90;;;;;;5057429;28;20218;-53
2022/01/04 06:06:03;;;;;;;12.97;8.90;;;8.20;99.90;;;;;;5054168;28;20653;-53
2022/01/04 06:08:36;;;;;;;11.67;7.70;;;8.20;99.90;;;;;;5060000;28;20231;-53
2022/01/04 06:11:03;;;;;;;13.60;7.87;;;8.20;99.90;;;;;;5060837;28;20610;-53
2022/01/04 06:16:16;;;;;;;13.90;8.37;;;8.20;99.90;;;;;;5059971;28;20663;-54
2022/01/04 06:18:43;;;;;;;10.50;7.83;;;8.10;99.90;;;;;;5060052;28;20211;-52
2022/01/04 06:21:11;;;;;;;13.17;8.73;;;8.20;99.90;;;;;;5059701;28;20708;-55
2022/01/04 06:23:38;;;;;;;11.83;8.33;;;8.10;99.90;;;;;;5059573;28;20286;-55
2022/01/04 06:26:05;;;;;;;11.63;7.53;;;8.20;99.90;;;;;;5061175;28;20673;-54
2022/01/04 06:28:32;;;;;;;11.40;7.53;;;8.10;99.90;;;;;;5074881;28;20252;-52
2022/01/04 06:30:59;;;;;;;11.93;8.37;;;8.10;99.90;;;;;;5060027;28;20530;-55
2022/01/04 06:33:26;;;;;;;11.53;7.93;;;8.10;99.90;;;;;;5059288;28;20249;-53
2022/01/04 06:35:53;;;;;;;13.17;8.57;;;8.10;99.90;;;;;;5058899;28;20779;-54
2022/01/04 06:38:20;;;;;;;13.87;8.63;;;8.00;99.90;;;;;;5060139;28;20246;-56
2022/01/04 06:40:47;;;;;;;10.47;7.73;;;8.10;99.90;;;;;;5059244;28;20211;-54
2022/01/04 06:43:14;;;;;;;10.27;7.70;;;8.10;99.90;;;;;;5059577;28;20724;-53
2022/01/04 06:45:41;;;;;;;13.30;8.40;;;8.10;99.90;;;;;;5060040;28;20246;-54
2022/01/04 06:48:07;;;;;;;14.97;9.23;;;8.10;99.90;;;;;;5059630;28;20199;-53
2022/01/04 06:50:34;;;;;;;17.97;10.10;;;8.10;99.90;;;;;;5057639;28;20216;-53
2022/01/04 06:53:01;;;;;;;13.97;8.63;;;8.10;99.90;;;;;;5059094;28;20744;-53
2022/01/04 06:55:28;;;;;;;12.80;8.57;;;8.10;99.90;;;;;;5057316;28;20235;-54
2022/01/04 06:57:55;;;;;;;14.93;8.37;;;8.10;99.90;;;;;;5054106;28;20605;-53
2022/01/04 07:00:22;;;;;;;13.77;10.30;;;8.10;99.90;;;;;;5056010;28;20233;-55
2022/01/04 07:02:48;;;;;;;17.07;10.50;;;8.10;99.90;;;;;;5059283;28;20264;-54
2022/01/04 07:05:15;;;;;;;17.13;9.73;;;8.10;99.90;;;;;;5059288;28;20260;-54
2022/01/04 07:07:42;;;;;;;18.27;9.83;;;8.10;99.90;;;;;;5059046;28;20207;-54
2022/01/04 07:10:11;;;;;;;17.97;9.27;;;8.10;99.90;;;;;;5059466;28;20237;-53
2022/01/04 07:12:38;;;;;;;15.73;9.53;;;8.10;99.90;;;;;;5055843;28;20568;-56
2022/01/04 07:15:05;;;;;;;14.33;9.83;;;8.10;99.90;;;;;;5059083;28;20211;-53
2022/01/04 07:17:33;;;;;;;14.43;10.37;;;8.10;99.90;;;;;;5054656;28;20505;-54
2022/01/04 07:20:00;;;;;;;16.60;9.60;;;8.20;99.90;;;;;;5057043;28;20266;-53
2022/01/04 07:22:27;;;;;;;16.27;10.07;;;8.10;99.90;;;;;;5059929;28;20610;-54
2022/01/04 07:24:54;;;;;;;20.17;11.77;;;8.10;99.90;;;;;;5057669;28;21216;-54
2022/01/04 07:27:21;;;;;;;16.17;11.13;;;8.10;99.90;;;;;;5055457;28;20195;-53
2022/01/04 07:29:48;;;;;;;20.37;10.97;;;8.20;99.90;;;;;;5058249;28;20310;-53
2022/01/04 07:32:14;;;;;;;18.63;11.33;;;8.10;99.90;;;;;;5055464;28;20277;-53
2022/01/04 07:34:41;;;;;;;16.43;11.00;;;8.20;99.90;;;;;;5057654;28;20778;-55
2022/01/04 07:37:08;;;;;;;19.30;10.87;;;8.20;99.90;;;;;;5062467;28;20226;-53
2022/01/04 07:39:35;;;;;;;19.53;11.23;;;8.10;99.90;;;;;;5062733;28;20213;-54
2022/01/04 07:42:03;;;;;;;15.60;10.60;;;8.10;99.90;;;;;;5062850;28;20234;-54
2022/01/04 07:44:30;;;;;;;15.67;10.17;;;8.20;99.90;;;;;;5062651;28;20311;-54
2022/01/04 07:46:57;;;;;;;15.90;10.10;;;8.20;99.90;;;;;;5064470;28;20284;-54
2022/01/04 07:49:24;;;;;;;17.83;10.77;;;8.10;99.90;;;;;;5061316;28;20227;-54
2022/01/04 07:51:52;;;;;;;15.23;9.93;;;8.10;99.90;;;;;;5063722;28;20295;-54
2022/01/04 07:54:19;;;;;;;15.00;10.13;;;8.10;99.90;;;;;;5062244;28;20706;-53
2022/01/04 07:56:46;;;;;;;16.07;10.07;;;8.20;99.90;;;;;;5062559;28;20625;-54
2022/01/04 07:59:16;;;;;;;17.70;11.57;;;8.10;99.90;;;;;;5062298;28;20726;-54
2022/01/04 08:01:42;;;;;;;14.53;10.33;;;8.10;99.90;;;;;;5062833;28;20272;-53
2022/01/04 08:04:09;;;;;;;15.33;10.63;;;8.20;99.90;;;;;;5060085;28;20318;-53
2022/01/04 08:06:36;;;;;;;15.37;10.00;;;8.20;99.90;;;;;;5062978;28;20850;-55
2022/01/04 08:09:03;;;;;;;15.77;10.73;;;8.10;99.90;;;;;;5063469;28;20257;-54
2022/01/04 08:11:30;;;;;;;16.37;9.53;;;8.10;99.90;;;;;;5063111;28;20688;-54
2022/01/04 08:13:57;;;;;;;19.13;10.80;;;8.10;99.90;;;;;;5060713;28;20605;-55
2022/01/04 08:16:24;;;;;;;18.43;10.63;;;8.10;99.90;;;;;;5062117;28;20258;-53
2022/01/04 08:18:51;;;;;;;14.50;9.83;;;8.10;99.90;;;;;;5061695;28;20537;-55
2022/01/04 08:21:32;;;;;;;18.17;10.87;;;8.10;99.90;;;;;;5061835;28;20199;-54
2022/01/04 08:23:59;;;;;;;16.07;10.17;;;8.10;99.90;;;;;;5057305;28;20203;-53
2022/01/04 08:26:28;;;;;;;17.53;10.57;;;8.10;99.90;;;;;;5063067;28;20250;-54
2022/01/04 08:28:56;;;;;;;17.53;11.40;;;8.10;99.90;;;;;;5062340;28;20299;-53
2022/01/04 08:31:23;;;;;;;20.83;11.37;;;8.10;99.90;;;;;;5061921;28;20203;-54
2022/01/04 08:33:52;;;;;;;16.93;11.43;;;8.10;99.90;;;;;;5061300;28;20211;-55
2022/01/04 08:36:20;;;;;;;16.60;10.50;;;8.10;99.90;;;;;;5063269;28;20243;-55
2022/01/04 08:38:47;;;;;;;18.23;10.93;;;8.20;99.90;;;;;;5063017;28;20605;-55
2022/01/04 08:41:14;;;;;;;19.17;10.60;;;8.10;99.90;;;;;;5062184;28;20234;-55
2022/01/04 08:43:40;;;;;;;18.83;11.13;;;8.20;99.90;;;;;;5061755;28;20653;-53
2022/01/04 08:46:07;;;;;;;16.90;11.47;;;8.20;99.90;;;;;;5063042;28;20243;-53
2022/01/04 08:48:34;;;;;;;20.40;12.40;;;8.20;99.90;;;;;;5060499;28;20204;-56
2022/01/04 08:51:01;;;;;;;19.97;10.60;;;8.10;99.90;;;;;;5060422;28;20664;-55
2022/01/04 08:53:28;;;;;;;22.57;11.33;;;8.20;99.90;;;;;;5057328;28;21018;-54
2022/01/04 08:55:56;;;;;;;16.97;10.60;;;8.20;99.90;;;;;;5061481;28;20693;-52
2022/01/04 08:58:23;;;;;;;17.27;11.10;;;8.20;99.90;;;;;;5061590;28;20266;-54
2022/01/04 09:00:50;;;;;;;19.50;11.93;;;8.20;99.90;;;;;;5061700;28;20621;-55
2022/01/04 09:03:17;;;;;;;21.67;11.57;;;8.20;99.90;;;;;;5061340;28;20221;-54
2022/01/04 09:05:44;;;;;;;22.53;12.63;;;8.30;99.90;;;;;;5060475;28;20276;-54
2022/01/04 09:08:11;;;;;;;19.20;11.60;;;8.30;99.90;;;;;;5059480;28;20783;-55
2022/01/04 09:10:37;;;;;;;20.80;12.63;;;8.40;99.90;;;;;;5062126;28;20196;-55
2022/01/04 09:13:17;;;;;;;21.53;11.83;;;8.30;99.90;;;;;;5058778;28;20202;-55
2022/01/04 09:18:43;;;;;;;17.47;11.87;;;8.30;99.90;;;;;;5061505;28;20241;-54
2022/01/04 09:18:48;;;;;;;21.90;12.50;;;8.30;99.90;;;;;;5061649;28;20203;-55
2022/01/04 09:21:28;;;;;;;21.27;12.97;;;8.40;99.90;;;;;;5059196;28;20260;-54
2022/01/04 09:23:59;;;;;;;19.60;12.10;;;8.40;99.90;;;;;;5055663;28;20395;-53
2022/01/04 09:26:27;;;;;;;27.17;14.90;;;8.40;99.90;;;;;;5059983;28;20245;-55
2022/01/04 09:28:55;;;;;;;21.60;14.07;;;8.40;99.90;;;;;;5061324;28;20232;-53
2022/01/04 09:31:24;;;;;;;24.93;14.50;;;8.40;99.90;;;;;;5060105;28;20700;-53
2022/01/04 09:33:53;;;;;;;28.80;13.83;;;8.40;99.90;;;;;;5060740;28;20727;-55
2022/01/04 09:36:28;;;;;;;22.57;13.70;;;8.40;99.90;;;;;;5061471;28;20212;-55
2022/01/04 09:38:55;;;;;;;20.57;14.10;;;8.40;99.90;;;;;;5059648;28;20723;-52
2022/01/04 09:41:22;;;;;;;21.30;14.03;;;8.40;99.90;;;;;;5061284;28;20204;-52
2022/01/04 09:43:51;;;;;;;24.40;13.90;;;8.40;99.90;;;;;;5061503;28;20200;-52
2022/01/04 09:46:18;;;;;;;23.93;13.40;;;8.40;99.90;;;;;;5058419;28;20784;-52
2022/01/04 09:48:45;;;;;;;24.83;14.67;;;8.50;99.90;;;;;;5058846;28;20676;-54
2022/01/04 09:51:15;;;;;;;21.57;13.37;;;8.50;99.90;;;;;;5060189;28;20198;-54
2022/01/04 09:53:43;;;;;;;23.13;14.37;;;8.50;99.90;;;;;;5058171;28;20950;-54
2022/01/04 09:56:10;;;;;;;25.00;14.83;;;8.50;99.90;;;;;;5060941;28;20561;-54
2022/01/04 09:58:37;;;;;;;22.17;13.40;;;8.50;99.90;;;;;;5060307;28;20250;-55
2022/01/04 10:01:04;;;;;;;22.77;13.13;;;8.50;99.90;;;;;;5060715;28;20229;-55
2022/01/04 10:03:35;;;;;;;22.60;14.13;;;8.50;99.90;;;;;;5061412;28;20607;-53
2022/01/04 10:06:14;;;;;;;31.07;15.03;;;8.60;99.90;;;;;;5059459;28;20223;-55
2022/01/04 10:09:12;;;;;;;23.00;14.27;;;8.50;99.90;;;;;;5060462;28;20314;-54
2022/01/04 10:11:44;;;;;;;21.30;13.70;;;8.50;99.90;;;;;;5049056;28;20238;-54
2022/01/04 10:14:32;;;;;;;21.37;13.03;;;8.60;99.90;;;;;;5059914;28;20197;-54
2022/01/04 10:17:06;;;;;;;20.40;13.40;;;8.60;99.90;;;;;;5060959;28;20216;-53
2022/01/04 10:19:36;;;;;;;22.23;13.47;;;8.50;99.90;;;;;;5065281;28;20214;-55
2022/01/04 10:22:19;;;;;;;21.47;13.40;;;8.60;99.90;;;;;;5060610;28;20213;-53
2022/01/04 10:25:06;;;;;;;19.30;12.77;;;8.60;99.90;;;;;;5060058;28;20236;-53
2022/01/04 10:27:51;;;;;;;19.50;12.90;;;8.60;99.90;;;;;;5059950;28;20732;-53
2022/01/04 10:30:23;;;;;;;19.80;13.03;;;8.60;99.90;;;;;;5059649;28;20332;-53
2022/01/04 10:32:55;;;;;;;23.27;14.10;;;8.60;99.90;;;;;;5059616;28;20199;-54
2022/01/04 10:35:38;;;;;;;21.47;13.23;;;8.70;99.90;;;;;;5058967;28;20319;-53
2022/01/04 10:38:13;;;;;;;20.17;12.47;;;8.80;99.90;;;;;;5060243;28;20237;-52
2022/01/04 10:40:49;;;;;;;22.57;13.20;;;8.80;99.90;;;;;;5061215;28;20283;-54
2022/01/04 10:43:19;;;;;;;24.43;13.17;;;8.90;99.90;;;;;;5060771;28;20206;-53
2022/01/04 10:45:48;;;;;;;24.97;13.67;;;8.80;99.90;;;;;;5059994;28;20307;-54
2022/01/04 10:48:16;;;;;;;21.37;12.07;;;8.80;99.90;;;;;;5059257;28;20202;-53
2022/01/04 10:50:46;;;;;;;19.00;12.23;;;8.70;99.90;;;;;;5058534;28;20209;-54
2022/01/04 10:53:17;;;;;;;20.00;12.00;;;8.70;99.90;;;;;;5059361;28;20234;-52
2022/01/04 10:55:44;;;;;;;22.20;12.03;;;8.90;99.90;;;;;;5059426;28;20204;-55
2022/01/04 10:58:21;;;;;;;18.53;10.93;;;8.90;99.90;;;;;;5059939;28;20278;-55
2022/01/04 11:00:54;;;;;;;20.73;10.53;;;8.80;99.90;;;;;;5059938;28;20584;-53
2022/01/04 11:03:32;;;;;;;12.50;6.67;;;8.60;99.90;;;;;;5058950;28;20291;-55
2022/01/04 11:06:12;;;;;;;4.60;2.90;;;8.40;99.90;;;;;;5058508;28;20210;-53
2022/01/04 11:08:40;;;;;;;6.13;3.67;;;8.10;99.90;;;;;;5059602;28;20242;-55
2022/01/04 11:11:07;;;;;;;5.57;3.47;;;8.20;99.90;;;;;;5059268;28;20201;-55
2022/01/04 11:13:34;;;;;;;5.47;3.40;;;8.30;99.90;;;;;;5059988;28;20243;-56
2022/01/04 11:16:02;;;;;;;4.77;2.90;;;8.30;99.90;;;;;;5056182;28;20209;-56
2022/01/04 11:18:31;;;;;;;6.70;3.93;;;8.20;99.90;;;;;;5059429;28;20239;-55
2022/01/04 11:20:58;;;;;;;8.00;4.07;;;8.10;99.90;;;;;;5058617;28;20204;-54
2022/01/04 11:23:30;;;;;;;7.03;3.87;;;8.20;99.90;;;;;;5058728;28;20204;-56
2022/01/04 11:25:59;;;;;;;5.17;3.33;;;8.10;99.90;;;;;;5059707;28;20302;-56
2022/01/04 11:28:26;;;;;;;3.03;2.50;;;8.00;99.90;;;;;;5057744;28;20203;-54
2022/01/04 11:31:06;;;;;;;3.90;2.40;;;8.00;99.90;;;;;;5059845;28;20210;-53
2022/01/04 11:33:53;;;;;;;2.40;1.73;;;8.20;99.90;;;;;;5059365;28;20210;-56
2022/01/04 11:36:23;;;;;;;4.07;1.70;;;8.20;99.90;;;;;;5058907;28;20237;-56
2022/01/04 11:38:50;;;;;;;2.10;1.90;;;8.10;99.90;;;;;;5057328;28;20244;-53
2022/01/04 11:41:44;;;;;;;3.80;1.93;;;8.10;99.90;;;;;;5059500;28;20273;-54
2022/01/04 11:44:19;;;;;;;1.93;1.57;;;8.00;99.90;;;;;;5054282;28;20622;-55
2022/01/04 11:46:59;;;;;;;2.90;1.27;;;8.00;99.90;;;;;;5058810;28;20309;-53
2022/01/04 11:49:27;;;;;;;4.37;2.00;;;7.90;99.90;;;;;;5051637;28;21086;-52
2022/01/04 11:51:54;;;;;;;3.17;1.60;;;7.90;99.90;;;;;;5059993;28;20200;-54
2022/01/04 11:54:30;;;;;;;4.20;1.73;;;7.90;99.90;;;;;;5060350;28;20276;-53
2022/01/04 11:57:03;;;;;;;2.93;1.87;;;7.90;99.90;;;;;;5056576;28;20702;-57
2022/01/04 11:59:44;;;;;;;3.40;1.73;;;7.90;99.90;;;;;;5053407;28;20730;-52
2022/01/04 12:02:37;;;;;;;5.53;1.70;;;7.80;99.90;;;;;;5058708;28;20200;-53
2022/01/04 12:05:22;;;;;;;3.20;1.70;;;7.90;99.90;;;;;;5058515;28;20214;-53
2022/01/04 12:07:50;;;;;;;6.03;1.60;;;7.90;99.90;;;;;;5059607;28;20265;-54
2022/01/04 12:10:20;;;;;;;3.77;1.57;;;7.80;99.90;;;;;;5059008;28;20223;-52
2022/01/04 12:13:09;;;;;;;4.27;1.60;;;7.90;99.90;;;;;;5059438;28;20547;-54
2022/01/04 12:15:36;;;;;;;5.13;1.47;;;7.90;99.90;;;;;;5052773;28;20660;-54
2022/01/04 12:18:07;;;;;;;7.40;2.17;;;8.00;99.90;;;;;;5058866;28;20713;-56
2022/01/04 12:20:43;;;;;;;3.87;1.80;;;8.00;99.90;;;;;;5058062;28;20211;-53
2022/01/04 12:23:35;;;;;;;3.03;1.70;;;7.90;99.90;;;;;;5059580;28;20241;-53
2022/01/04 12:26:05;;;;;;;4.70;2.20;;;7.80;99.90;;;;;;5062769;28;20220;-53
2022/01/04 12:28:55;;;;;;;3.53;1.50;;;7.80;99.90;;;;;;5068573;28;20212;-53
2022/01/04 12:31:26;;;;;;;2.30;1.77;;;8.00;99.90;;;;;;5042816;28;20247;-54
2022/01/04 12:33:57;;;;;;;3.93;2.20;;;8.10;99.90;;;;;;5062660;28;21005;-53
2022/01/04 12:36:41;;;;;;;5.37;2.10;;;8.10;99.90;;;;;;5063205;28;20205;-57
2022/01/04 12:39:09;;;;;;;3.97;1.77;;;8.10;99.90;;;;;;5059921;28;20211;-54
2022/01/04 12:41:38;;;;;;;2.33;1.63;;;8.10;99.90;;;;;;5062893;28;20207;-54
2022/01/04 12:44:11;;;;;;;4.93;1.70;;;8.20;99.90;;;;;;5062330;28;20200;-54
2022/01/04 12:46:40;;;;;;;6.30;2.00;;;8.20;99.90;;;;;;5062264;28;21141;-55
2022/01/04 12:49:13;;;;;;;3.10;1.90;;;8.20;99.90;;;;;;5061630;28;22098;-54
2022/01/04 12:51:54;;;;;;;3.33;2.03;;;8.30;99.90;;;;;;5062387;28;20227;-54
2022/01/04 12:54:23;;;;;;;3.83;2.20;;;8.40;99.90;;;;;;5061727;28;20202;-53
2022/01/04 12:56:55;;;;;;;2.90;2.10;;;8.30;99.90;;;;;;5060259;28;20224;-54
2022/01/04 12:59:25;;;;;;;4.80;2.47;;;8.40;99.90;;;;;;5061428;28;20242;-54
2022/01/04 13:01:55;;;;;;;10.13;2.57;;;8.40;99.90;;;;;;5061109;28;21037;-53
2022/01/04 13:04:27;;;;;;;3.73;2.50;;;8.50;99.90;;;;;;5060381;28;20694;-54
2022/01/04 13:06:56;;;;;;;6.97;2.87;;;8.60;99.90;;;;;;5061968;28;20288;-54
2022/01/04 13:09:25;;;;;;;5.20;2.60;;;8.50;99.90;;;;;;5061746;28;20223;-55